createdAt,value
2023-05-14T00:00:52.343Z,10.61
2023-05-14T00:03:19.178Z,10.60
2023-05-14T00:05:45.846Z,10.59
2023-05-14T00:08:12.474Z,10.60
2023-05-14T00:10:39.069Z,10.58
2023-05-14T00:13:05.791Z,10.60
2023-05-14T00:15:34.197Z,10.59
2023-05-14T00:18:01.266Z,10.52
2023-05-14T00:20:27.962Z,10.47
2023-05-14T00:22:54.576Z,10.47
2023-05-14T00:25:21.168Z,10.44
2023-05-14T00:27:47.734Z,10.41
2023-05-14T00:30:14.396Z,10.39
2023-05-14T00:32:41.040Z,10.38
2023-05-14T00:35:07.958Z,10.33
2023-05-14T00:37:34.764Z,10.29
2023-05-14T00:40:01.853Z,10.22
2023-05-14T00:42:29.670Z,10.20
2023-05-14T00:44:59.458Z,10.26
2023-05-14T00:47:33.952Z,10.26
2023-05-14T00:50:07.092Z,10.26
2023-05-14T00:52:42.236Z,10.15
2023-05-14T00:55:11.957Z,10.19
2023-05-14T00:57:39.207Z,10.16
2023-05-14T01:00:08.504Z,10.11
2023-05-14T01:02:35.417Z,10.24
2023-05-14T01:05:03.028Z,10.21
2023-05-14T01:07:42.213Z,10.20
2023-05-14T01:10:17.481Z,10.19
2023-05-14T01:13:07.269Z,10.17
2023-05-14T01:15:36.312Z,10.09
2023-05-14T01:18:09.994Z,10.02
2023-05-14T01:20:36.830Z,9.98
2023-05-14T01:23:04.031Z,9.89
2023-05-14T01:25:31.764Z,9.80
2023-05-14T01:28:09.172Z,9.78
2023-05-14T01:31:28.346Z,9.75
2023-05-14T01:34:01.627Z,9.66
2023-05-14T01:36:29.999Z,9.66
2023-05-14T01:38:57.614Z,9.66
2023-05-14T01:41:26.911Z,9.56
2023-05-14T01:43:53.920Z,9.55
2023-05-14T01:46:20.815Z,9.46
2023-05-14T01:48:50.445Z,9.52
2023-05-14T01:51:17.653Z,9.40
2023-05-14T01:53:44.324Z,9.42
2023-05-14T01:56:11.060Z,9.44
2023-05-14T01:58:45.879Z,9.40
2023-05-14T02:01:12.541Z,9.32
2023-05-14T02:03:39.395Z,9.35
2023-05-14T02:06:06.212Z,9.35
2023-05-14T02:08:32.824Z,9.27
2023-05-14T02:10:59.572Z,9.38
2023-05-14T02:13:26.927Z,9.37
2023-05-14T02:15:58.807Z,9.30
2023-05-14T02:18:25.702Z,9.35
2023-05-14T02:20:53.136Z,9.45
2023-05-14T02:23:40.901Z,9.47
2023-05-14T02:26:10.275Z,9.43
2023-05-14T02:28:36.965Z,9.49
2023-05-14T02:31:03.723Z,9.58
2023-05-14T02:33:37.881Z,9.60
2023-05-14T02:36:04.597Z,9.63
2023-05-14T02:38:31.937Z,9.62
2023-05-14T02:40:58.557Z,9.61
2023-05-14T02:43:25.302Z,9.58
2023-05-14T02:46:04.675Z,9.60
2023-05-14T02:48:31.922Z,9.62
2023-05-14T02:50:58.772Z,9.64
2023-05-14T02:53:49.138Z,9.67
2023-05-14T02:56:18.383Z,9.59
2023-05-14T02:58:45.316Z,9.72
2023-05-14T03:01:21.377Z,9.66
2023-05-14T03:04:16.375Z,9.74
2023-05-14T03:06:46.447Z,9.74
2023-05-14T03:09:18.790Z,9.77
2023-05-14T03:11:59.551Z,9.87
2023-05-14T03:14:26.326Z,9.88
2023-05-14T03:16:58.305Z,9.95
2023-05-14T03:19:32.541Z,9.95
2023-05-14T03:22:07.298Z,10.09
2023-05-14T03:24:34.836Z,10.21
2023-05-14T03:27:01.560Z,10.20
2023-05-14T03:29:28.626Z,10.28
2023-05-14T03:35:19.387Z,10.40
2023-05-14T03:37:59.720Z,10.42
2023-05-14T03:40:39.743Z,10.55
2023-05-14T03:43:12.442Z,10.61
2023-05-14T03:45:47.502Z,10.76
2023-05-14T03:48:15.265Z,10.94
2023-05-14T03:50:45.209Z,11.04
2023-05-14T03:53:24.163Z,11.19
2023-05-14T03:55:51.134Z,11.24
2023-05-14T03:58:21.576Z,11.25
2023-05-14T04:01:00.717Z,11.28
2023-05-14T04:03:30.627Z,11.30
2023-05-14T04:06:03.881Z,11.27
2023-05-14T04:08:31.076Z,11.24
2023-05-14T04:11:05.910Z,11.28
2023-05-14T04:13:32.526Z,11.26
2023-05-14T04:15:59.296Z,11.25
2023-05-14T04:18:43.838Z,11.29
2023-05-14T04:21:11.050Z,11.38
2023-05-14T04:23:44.036Z,11.38
2023-05-14T04:26:13.768Z,11.47
2023-05-14T04:28:40.641Z,11.52
2023-05-14T04:31:07.768Z,11.54
2023-05-14T04:33:38.178Z,11.57
2023-05-14T04:36:05.769Z,11.56
2023-05-14T04:38:43.490Z,11.65
2023-05-14T04:41:17.225Z,11.69
2023-05-14T04:43:43.840Z,11.69
2023-05-14T04:46:10.884Z,11.84
2023-05-14T04:48:52.675Z,12.00
2023-05-14T04:51:19.391Z,12.19
2023-05-14T04:53:46.567Z,12.28
2023-05-14T04:56:13.181Z,12.38
2023-05-14T04:58:40.303Z,12.48
2023-05-14T05:01:10.502Z,12.58
2023-05-14T05:03:37.393Z,12.82
2023-05-14T05:06:04.553Z,13.04
2023-05-14T05:08:31.276Z,13.23
2023-05-14T05:10:57.954Z,13.43
2023-05-14T05:13:24.667Z,13.65
2023-05-14T05:15:51.348Z,13.63
2023-05-14T05:18:17.972Z,13.99
2023-05-14T05:20:45.094Z,14.04
2023-05-14T05:23:12.012Z,14.21
2023-05-14T05:25:38.775Z,14.32
2023-05-14T05:28:05.795Z,14.23
2023-05-14T05:30:32.609Z,14.24
2023-05-14T05:32:59.496Z,14.20
2023-05-14T05:35:28.918Z,14.12
2023-05-14T05:37:56.012Z,14.13
2023-05-14T05:40:25.666Z,14.08
2023-05-14T05:42:52.753Z,14.05
2023-05-14T05:45:19.782Z,14.14
2023-05-14T05:47:46.703Z,14.26
2023-05-14T05:50:13.797Z,14.32
2023-05-14T05:52:41.178Z,14.36
2023-05-14T05:55:08.236Z,14.49
2023-05-14T05:57:34.865Z,14.45
2023-05-14T06:00:06.518Z,14.51
2023-05-14T06:02:33.338Z,14.53
2023-05-14T06:05:00.139Z,14.74
2023-05-14T06:07:26.781Z,15.03
2023-05-14T06:09:53.562Z,15.18
2023-05-14T06:12:20.808Z,15.24
2023-05-14T06:14:48.120Z,15.14
2023-05-14T06:17:14.972Z,15.21
2023-05-14T06:19:41.853Z,15.37
2023-05-14T06:22:08.456Z,15.65
2023-05-14T06:24:35.544Z,16.16
2023-05-14T06:27:02.167Z,16.21
2023-05-14T06:29:28.842Z,16.44
2023-05-14T06:32:03.827Z,16.48
2023-05-14T06:34:34.723Z,16.56
2023-05-14T06:37:04.259Z,16.43
2023-05-14T06:39:33.867Z,16.42
2023-05-14T06:42:01.031Z,16.55
2023-05-14T06:44:27.937Z,16.58
2023-05-14T06:46:54.744Z,16.45
2023-05-14T06:49:21.587Z,16.37
2023-05-14T06:51:48.432Z,16.58
2023-05-14T06:54:15.327Z,16.60
2023-05-14T06:56:44.519Z,16.21
2023-05-14T06:59:11.425Z,16.22
2023-05-14T07:01:38.418Z,16.24
2023-05-14T07:04:08.092Z,16.22
2023-05-14T07:06:37.669Z,16.20
2023-05-14T07:09:04.429Z,16.34
2023-05-14T07:11:31.176Z,16.45
2023-05-14T07:13:57.866Z,16.62
2023-05-14T07:16:24.546Z,16.65
2023-05-14T07:18:56.682Z,16.88
2023-05-14T07:21:23.326Z,16.94
2023-05-14T07:23:52.411Z,17.06
2023-05-14T07:26:19.171Z,17.05
2023-05-14T07:28:46.324Z,17.21
2023-05-14T07:31:13.128Z,17.56
2023-05-14T07:33:40.212Z,17.55
2023-05-14T07:36:07.518Z,17.33
2023-05-14T07:38:34.705Z,17.68
2023-05-14T07:41:01.413Z,17.97
2023-05-14T07:43:28.224Z,17.89
2023-05-14T07:45:58.163Z,17.99
2023-05-14T07:48:25.125Z,18.39
2023-05-14T07:50:52.079Z,18.59
2023-05-14T07:53:19.061Z,18.51
2023-05-14T07:55:48.153Z,18.71
2023-05-14T07:58:14.981Z,18.49
2023-05-14T08:00:41.725Z,18.37
2023-05-14T08:03:11.211Z,18.84
2023-05-14T08:05:38.064Z,18.90
2023-05-14T08:08:04.970Z,19.29
2023-05-14T08:10:31.776Z,19.33
2023-05-14T08:12:58.432Z,19.84
2023-05-14T08:15:27.562Z,20.09
2023-05-14T08:17:54.645Z,19.71
2023-05-14T08:20:21.343Z,19.62
2023-05-14T08:22:48.119Z,20.18
2023-05-14T08:25:14.894Z,20.33
2023-05-14T08:27:41.699Z,20.24
2023-05-14T08:30:08.810Z,20.43
2023-05-14T08:32:36.008Z,20.53
2023-05-14T08:35:02.882Z,20.18
2023-05-14T08:37:29.593Z,20.34
2023-05-14T08:39:56.578Z,20.46
2023-05-14T08:42:24.823Z,21.14
2023-05-14T08:45:02.210Z,21.10
2023-05-14T08:47:30.783Z,20.84
2023-05-14T08:50:08.328Z,20.64
2023-05-14T08:52:35.306Z,20.51
2023-05-14T08:55:06.933Z,20.98
2023-05-14T08:57:34.661Z,21.05
2023-05-14T09:00:06.080Z,21.46
2023-05-14T09:02:33.231Z,21.94
2023-05-14T09:05:01.584Z,22.37
2023-05-14T09:07:28.955Z,22.62
2023-05-14T09:09:56.067Z,23.01
2023-05-14T09:12:23.183Z,22.92
2023-05-14T09:14:50.993Z,23.24
2023-05-14T09:17:18.511Z,23.11
2023-05-14T09:19:53.105Z,23.22
2023-05-14T09:22:21.198Z,23.33
2023-05-14T09:25:02.806Z,23.27
2023-05-14T09:27:31.828Z,23.44
2023-05-14T09:30:14.113Z,22.97
2023-05-14T09:32:46.254Z,23.09
2023-05-14T09:35:23.987Z,22.66
2023-05-14T09:37:52.976Z,22.79
2023-05-14T09:40:21.665Z,23.09
2023-05-14T09:42:49.347Z,22.92
2023-05-14T09:45:16.858Z,22.69
2023-05-14T09:47:45.340Z,22.50
2023-05-14T09:50:12.607Z,22.70
2023-05-14T09:52:39.609Z,22.82
2023-05-14T09:55:07.120Z,22.60
2023-05-14T09:57:34.678Z,22.80
2023-05-14T10:00:01.499Z,22.47
2023-05-14T10:02:37.633Z,22.17
2023-05-14T10:05:06.499Z,22.23
2023-05-14T10:07:47.815Z,21.91
2023-05-14T10:10:18.618Z,21.86
2023-05-14T10:13:07.709Z,21.23
2023-05-14T10:15:41.688Z,20.78
2023-05-14T10:18:16.633Z,20.58
2023-05-14T10:20:44.202Z,20.40
2023-05-14T10:23:11.405Z,20.07
2023-05-14T10:25:38.423Z,20.11
2023-05-14T10:28:06.249Z,19.96
2023-05-14T10:30:33.077Z,19.65
2023-05-14T10:33:11.375Z,19.51
2023-05-14T10:36:07.116Z,19.56
2023-05-14T10:38:35.463Z,19.68
2023-05-14T10:41:10.054Z,19.47
2023-05-14T10:43:39.041Z,19.32
2023-05-14T10:46:07.575Z,18.95
2023-05-14T10:48:35.173Z,18.99
2023-05-14T10:51:02.839Z,19.02
2023-05-14T10:54:00.081Z,18.91
2023-05-14T10:56:42.740Z,18.74
2023-05-14T10:59:11.278Z,18.69
2023-05-14T11:01:44.065Z,18.79
2023-05-14T11:04:19.267Z,19.03
2023-05-14T11:06:49.476Z,18.94
2023-05-14T11:09:17.757Z,19.14
2023-05-14T11:11:44.363Z,19.01
2023-05-14T11:14:10.977Z,19.00
2023-05-14T11:16:37.979Z,19.10
2023-05-14T11:19:05.062Z,19.21
2023-05-14T11:21:32.891Z,19.21
2023-05-14T11:24:00.911Z,19.24
2023-05-14T11:26:27.579Z,19.31
2023-05-14T11:28:54.353Z,19.18
2023-05-14T11:31:22.271Z,19.21
2023-05-14T11:33:48.936Z,19.09
2023-05-14T11:36:15.540Z,19.14
2023-05-14T11:38:50.616Z,19.38
2023-05-14T11:41:17.236Z,19.49
2023-05-14T11:43:44.065Z,19.83
2023-05-14T11:46:18.293Z,20.09
2023-05-14T11:48:45.625Z,20.85
2023-05-14T11:51:12.789Z,21.45
2023-05-14T11:53:39.429Z,21.83
2023-05-14T11:56:21.888Z,21.62
2023-05-14T11:58:49.423Z,21.55
2023-05-14T12:01:16.046Z,21.48
2023-05-14T12:03:42.866Z,21.61
2023-05-14T12:06:09.702Z,21.07
2023-05-14T12:08:37.705Z,21.01
2023-05-14T12:11:04.337Z,20.80
2023-05-14T12:13:31.718Z,20.52
2023-05-14T12:16:00.444Z,20.77
2023-05-14T12:18:29.165Z,20.35
2023-05-14T12:20:56.414Z,20.34
2023-05-14T12:23:32.721Z,20.05
2023-05-14T12:26:08.436Z,20.13
2023-05-14T12:28:38.423Z,20.09
2023-05-14T12:31:05.904Z,20.05
2023-05-14T12:33:32.826Z,20.38
2023-05-14T12:36:13.523Z,20.65
2023-05-14T12:38:47.753Z,21.03
2023-05-14T12:41:18.297Z,21.01
2023-05-14T12:43:45.403Z,21.04
2023-05-14T12:46:12.460Z,21.47
2023-05-14T12:48:39.156Z,21.38
2023-05-14T12:51:06.657Z,21.61
2023-05-14T12:53:35.027Z,21.25
2023-05-14T12:56:03.984Z,21.64
2023-05-14T12:58:30.708Z,21.77
2023-05-14T13:00:59.718Z,21.86
2023-05-14T13:03:29.667Z,21.67
2023-05-14T13:05:56.566Z,22.06
2023-05-14T13:08:25.305Z,22.07
2023-05-14T13:10:53.026Z,21.66
2023-05-14T13:13:20.171Z,21.43
2023-05-14T13:15:47.016Z,21.54
2023-05-14T13:18:14.469Z,21.23
2023-05-14T13:20:43.115Z,20.84
2023-05-14T13:23:10.097Z,20.84
2023-05-14T13:25:36.684Z,20.72
2023-05-14T13:28:03.262Z,20.67
2023-05-14T13:30:32.497Z,20.62
2023-05-14T13:33:00.079Z,20.66
2023-05-14T13:35:26.971Z,20.79
2023-05-14T13:37:53.635Z,20.74
2023-05-14T13:40:20.500Z,20.95
2023-05-14T13:42:48.539Z,20.78
2023-05-14T13:45:15.347Z,20.96
2023-05-14T13:47:42.271Z,20.93
2023-05-14T13:50:09.315Z,20.64
2023-05-14T13:52:36.419Z,20.73
2023-05-14T13:55:03.554Z,20.32
2023-05-14T13:57:30.402Z,19.99
2023-05-14T13:59:57.309Z,19.72
2023-05-14T14:02:24.117Z,19.59
2023-05-14T14:04:50.849Z,19.56
2023-05-14T14:07:17.609Z,19.48
2023-05-14T14:09:45.162Z,19.57
2023-05-14T14:12:11.948Z,19.31
2023-05-14T14:14:38.937Z,19.25
2023-05-14T14:17:05.570Z,19.22
2023-05-14T14:19:32.158Z,19.09
2023-05-14T14:21:58.781Z,19.14
2023-05-14T14:24:25.531Z,19.30
2023-05-14T14:26:52.231Z,19.24
2023-05-14T14:29:18.994Z,19.27
2023-05-14T14:31:45.919Z,19.19
2023-05-14T14:34:12.687Z,19.21
2023-05-14T14:36:39.327Z,19.23
2023-05-14T14:39:05.977Z,19.26
2023-05-14T14:41:32.637Z,19.26
2023-05-14T14:43:59.255Z,19.27
2023-05-14T14:46:26.080Z,19.29
2023-05-14T14:48:52.872Z,19.38
2023-05-14T14:51:19.627Z,19.43
2023-05-14T14:53:46.292Z,19.52
2023-05-14T14:56:12.893Z,19.61
2023-05-14T14:58:39.622Z,19.81
2023-05-14T15:01:06.341Z,19.91
2023-05-14T15:03:33.129Z,20.03
2023-05-14T15:06:00.028Z,20.28
2023-05-14T15:08:28.782Z,20.40
2023-05-14T15:10:59.378Z,20.58
2023-05-14T15:13:27.182Z,20.72
2023-05-14T15:15:53.954Z,20.82
2023-05-14T15:18:23.842Z,20.94
2023-05-14T15:20:50.824Z,21.08
2023-05-14T15:23:17.752Z,20.90
2023-05-14T15:25:44.926Z,21.57
2023-05-14T15:28:11.728Z,21.57
2023-05-14T15:30:38.618Z,21.70
2023-05-14T15:33:09.884Z,21.89
2023-05-14T15:35:36.865Z,22.30
2023-05-14T15:38:03.914Z,22.97
2023-05-14T15:40:30.930Z,22.67
2023-05-14T15:42:57.571Z,22.60
2023-05-14T15:45:29.639Z,23.05
2023-05-14T15:47:56.690Z,23.56
2023-05-14T15:50:23.673Z,23.75
2023-05-14T15:52:51.200Z,23.80
2023-05-14T15:55:21.243Z,24.18
2023-05-14T15:57:50.908Z,24.16
2023-05-14T16:00:18.202Z,23.95
2023-05-14T16:02:45.141Z,24.30
2023-05-14T16:05:13.959Z,24.23
2023-05-14T16:07:41.405Z,23.57
2023-05-14T16:10:22.188Z,23.92
2023-05-14T16:12:49.829Z,23.35
2023-05-14T16:15:24.326Z,22.85
2023-05-14T16:17:54.143Z,22.16
2023-05-14T16:20:24.056Z,21.71
2023-05-14T16:22:54.730Z,21.18
2023-05-14T16:25:25.998Z,21.04
2023-05-14T16:27:55.273Z,21.20
2023-05-14T16:30:25.050Z,20.83
2023-05-14T16:32:52.102Z,20.69
2023-05-14T16:35:19.078Z,20.55
2023-05-14T16:37:46.085Z,20.34
2023-05-14T16:40:16.719Z,20.17
2023-05-14T16:42:47.779Z,19.89
2023-05-14T16:45:19.065Z,19.89
2023-05-14T16:47:46.346Z,19.79
2023-05-14T16:50:15.635Z,20.61
2023-05-14T16:52:45.109Z,21.60
2023-05-14T16:55:14.909Z,21.79
2023-05-14T16:57:46.006Z,22.48
2023-05-14T17:00:13.789Z,22.42
2023-05-14T17:02:54.679Z,22.15
2023-05-14T17:05:22.107Z,21.48
2023-05-14T17:07:50.433Z,21.14
2023-05-14T17:10:20.540Z,20.78
2023-05-14T17:12:50.453Z,20.59
2023-05-14T17:15:22.529Z,20.74
2023-05-14T17:17:54.568Z,21.05
2023-05-14T17:20:21.962Z,21.61
2023-05-14T17:22:50.643Z,22.11
2023-05-14T17:25:20.790Z,22.56
2023-05-14T17:27:47.456Z,22.91
2023-05-14T17:30:14.261Z,23.17
2023-05-14T17:32:47.468Z,23.34
2023-05-14T17:35:16.436Z,23.45
2023-05-14T17:37:43.690Z,23.50
2023-05-14T17:40:11.221Z,23.51
2023-05-14T17:42:38.095Z,23.53
2023-05-14T17:45:07.727Z,23.64
2023-05-14T17:47:38.460Z,23.22
2023-05-14T17:50:11.799Z,22.03
2023-05-14T17:52:50.679Z,21.48
2023-05-14T17:55:19.528Z,20.90
2023-05-14T17:57:46.759Z,20.67
2023-05-14T18:00:13.749Z,20.74
2023-05-14T18:02:41.700Z,20.90
2023-05-14T18:05:08.900Z,20.61
2023-05-14T18:07:35.727Z,20.07
2023-05-14T18:10:03.040Z,19.51
2023-05-14T18:12:29.810Z,19.21
2023-05-14T18:14:56.541Z,18.86
2023-05-14T18:17:23.601Z,18.67
2023-05-14T18:19:50.685Z,18.71
2023-05-14T18:22:17.294Z,18.49
2023-05-14T18:24:44.523Z,18.31
2023-05-14T18:27:11.613Z,18.10
2023-05-14T18:29:38.367Z,17.97
2023-05-14T18:32:05.602Z,17.86
2023-05-14T18:34:32.387Z,17.79
2023-05-14T18:36:59.168Z,17.73
2023-05-14T18:39:26.402Z,17.63
2023-05-14T18:41:53.321Z,17.52
2023-05-14T18:44:20.428Z,17.41
2023-05-14T18:46:47.356Z,17.29
2023-05-14T18:49:14.197Z,17.23
2023-05-14T18:51:40.821Z,17.11
2023-05-14T18:54:07.556Z,16.99
2023-05-14T18:56:37.047Z,16.94
2023-05-14T18:59:04.504Z,16.86
2023-05-14T19:01:31.519Z,16.77
2023-05-14T19:03:58.378Z,16.62
2023-05-14T19:06:25.164Z,16.52
2023-05-14T19:08:52.146Z,16.36
2023-05-14T19:11:18.818Z,16.18
2023-05-14T19:13:46.863Z,16.06
2023-05-14T19:16:14.139Z,15.89
2023-05-14T19:18:41.248Z,15.73
2023-05-14T19:21:08.126Z,15.58
2023-05-14T19:23:34.855Z,15.45
2023-05-14T19:26:01.711Z,15.28
2023-05-14T19:28:28.405Z,15.14
2023-05-14T19:30:57.202Z,14.99
2023-05-14T19:33:24.906Z,14.86
2023-05-14T19:35:52.099Z,14.76
2023-05-14T19:38:19.881Z,14.62
2023-05-14T19:40:46.494Z,14.55
2023-05-14T19:43:13.150Z,14.44
2023-05-14T19:45:40.147Z,14.39
2023-05-14T19:48:06.897Z,14.26
2023-05-14T19:50:34.261Z,14.14
2023-05-14T19:53:01.197Z,14.07
2023-05-14T19:55:28.406Z,13.93
2023-05-14T19:57:55.116Z,13.85
2023-05-14T20:00:22.895Z,13.82
2023-05-14T20:02:49.873Z,13.65
2023-05-14T20:05:17.216Z,13.58
2023-05-14T20:07:44.850Z,13.51
2023-05-14T20:10:11.437Z,13.41
2023-05-14T20:12:38.205Z,13.34
2023-05-14T20:15:05.247Z,13.30
2023-05-14T20:17:32.011Z,13.18
2023-05-14T20:19:58.741Z,13.05
2023-05-14T20:22:25.770Z,12.98
2023-05-14T20:24:52.880Z,12.92
2023-05-14T20:27:19.558Z,12.83
2023-05-14T20:29:47.013Z,12.75
2023-05-14T20:32:15.607Z,12.73
2023-05-14T20:34:42.249Z,12.67
2023-05-14T20:37:09.437Z,12.60
2023-05-14T20:39:36.376Z,12.62
2023-05-14T20:42:02.997Z,12.58
2023-05-14T20:44:29.631Z,12.52
2023-05-14T20:46:56.298Z,12.47
2023-05-14T20:49:22.884Z,12.48
2023-05-14T20:51:49.748Z,12.42
2023-05-14T20:54:16.509Z,12.44
2023-05-14T20:56:43.289Z,12.44
2023-05-14T20:59:09.894Z,12.46
2023-05-14T21:01:36.597Z,12.52
2023-05-14T21:04:03.473Z,12.59
2023-05-14T21:06:30.315Z,12.63
2023-05-14T21:08:56.908Z,12.66
2023-05-14T21:11:23.979Z,12.74
2023-05-14T21:13:51.135Z,12.79
2023-05-14T21:16:17.889Z,12.80
2023-05-14T21:18:44.732Z,12.87
2023-05-14T21:21:11.368Z,12.93
2023-05-14T21:23:37.980Z,12.94
2023-05-14T21:26:06.800Z,12.98
2023-05-14T21:28:33.408Z,12.95
2023-05-14T21:31:00.055Z,12.99
2023-05-14T21:33:26.685Z,12.98
2023-05-14T21:35:53.248Z,12.99
2023-05-14T21:38:20.335Z,12.94
2023-05-14T21:40:46.937Z,12.92
2023-05-14T21:43:13.637Z,12.88
2023-05-14T21:45:40.302Z,12.81
2023-05-14T21:48:07.020Z,12.76
2023-05-14T21:50:33.691Z,12.70
2023-05-14T21:53:00.454Z,12.60
2023-05-14T21:55:28.162Z,12.57
2023-05-14T21:57:54.944Z,12.48
2023-05-14T22:00:25.177Z,12.40
2023-05-14T22:02:55.366Z,12.31
2023-05-14T22:05:22.516Z,12.23
2023-05-14T22:07:49.395Z,12.13
2023-05-14T22:10:16.596Z,12.05
2023-05-14T22:12:44.664Z,11.94
2023-05-14T22:15:12.140Z,11.84
2023-05-14T22:17:39.033Z,11.80
2023-05-14T22:20:07.130Z,11.76
2023-05-14T22:22:34.365Z,11.72
2023-05-14T22:25:00.992Z,11.63
2023-05-14T22:27:27.633Z,11.56
2023-05-14T22:29:55.220Z,11.49
2023-05-14T22:32:21.902Z,11.36
2023-05-14T22:34:48.558Z,11.29
2023-05-14T22:37:15.679Z,11.27
2023-05-14T22:39:42.759Z,11.33
2023-05-14T22:42:09.493Z,11.28
2023-05-14T22:44:37.066Z,11.23
2023-05-14T22:47:07.354Z,11.20
2023-05-14T22:49:34.059Z,11.25
2023-05-14T22:52:01.322Z,11.24
2023-05-14T22:54:27.973Z,11.18
2023-05-14T22:56:54.619Z,11.18
2023-05-14T22:59:23.425Z,11.19
2023-05-14T23:01:50.465Z,11.18
2023-05-14T23:04:17.227Z,11.20
2023-05-14T23:06:43.937Z,11.30
2023-05-14T23:09:10.685Z,11.29
2023-05-14T23:11:37.432Z,11.31
2023-05-14T23:14:04.022Z,11.32
2023-05-14T23:16:31.868Z,11.37
2023-05-14T23:18:58.601Z,11.40
2023-05-14T23:21:25.559Z,11.42
2023-05-14T23:23:52.131Z,11.43
2023-05-14T23:26:18.747Z,11.47
2023-05-14T23:28:47.279Z,11.52
2023-05-14T23:31:14.044Z,11.54
2023-05-14T23:33:40.776Z,11.54
2023-05-14T23:36:07.985Z,11.56
2023-05-14T23:38:34.720Z,11.58
2023-05-14T23:41:01.483Z,11.60
2023-05-14T23:43:28.162Z,11.61
2023-05-14T23:45:54.817Z,11.60
2023-05-14T23:48:21.475Z,11.62
2023-05-14T23:50:48.041Z,11.59
2023-05-14T23:53:14.723Z,11.57
2023-05-14T23:55:41.330Z,11.49
2023-05-14T23:58:07.931Z,11.43
